sensor_id;sensor_type;location;lat;lon;timestamp;P1;durP1;ratioP1;P2;durP2;ratioP2
81523;SDS011;70954;49.500;10.416;2024-03-23T00:53:00;4.22;;;2.75;;
81523;SDS011;70954;49.500;10.416;2024-03-23T00:55:26;6.38;;;3.10;;
81523;SDS011;70954;49.500;10.416;2024-03-23T00:57:51;3.83;;;2.58;;
81523;SDS011;70954;49.500;10.416;2024-03-23T01:00:16;2.85;;;2.22;;
81523;SDS011;70954;49.500;10.416;2024-03-23T01:02:42;7.25;;;2.70;;
81523;SDS011;70954;49.500;10.416;2024-03-23T01:05:07;3.92;;;2.55;;
81523;SDS011;70954;49.500;10.416;2024-03-23T01:07:33;3.60;;;2.40;;
81523;SDS011;70954;49.500;10.416;2024-03-23T01:09:58;4.82;;;2.65;;
81523;SDS011;70954;49.500;10.416;2024-03-23T01:12:24;3.50;;;2.70;;
81523;SDS011;70954;49.500;10.416;2024-03-23T01:14:49;3.97;;;2.40;;
81523;SDS011;70954;49.500;10.416;2024-03-23T01:17:15;3.47;;;2.42;;
81523;SDS011;70954;49.500;10.416;2024-03-23T01:19:40;2.95;;;2.53;;
81523;SDS011;70954;49.500;10.416;2024-03-23T01:22:06;3.63;;;2.65;;
81523;SDS011;70954;49.500;10.416;2024-03-23T01:24:31;3.38;;;2.50;;
81523;SDS011;70954;49.500;10.416;2024-03-23T01:26:57;3.45;;;2.40;;
81523;SDS011;70954;49.500;10.416;2024-03-23T01:29:22;2.92;;;2.30;;
81523;SDS011;70954;49.500;10.416;2024-03-23T01:31:47;3.65;;;2.55;;
81523;SDS011;70954;49.500;10.416;2024-03-23T01:34:13;3.58;;;2.55;;
81523;SDS011;70954;49.500;10.416;2024-03-23T01:36:38;3.30;;;2.25;;
81523;SDS011;70954;49.500;10.416;2024-03-23T01:39:04;3.55;;;2.65;;
81523;SDS011;70954;49.500;10.416;2024-03-23T01:41:29;3.38;;;2.20;;
81523;SDS011;70954;49.500;10.416;2024-03-23T01:43:55;3.13;;;2.08;;
81523;SDS011;70954;49.500;10.416;2024-03-23T01:46:20;2.65;;;2.35;;
81523;SDS011;70954;49.500;10.416;2024-03-23T01:48:46;3.65;;;2.58;;
81523;SDS011;70954;49.500;10.416;2024-03-23T01:51:12;4.35;;;2.70;;
81523;SDS011;70954;49.500;10.416;2024-03-23T01:53:38;2.55;;;2.05;;
81523;SDS011;70954;49.500;10.416;2024-03-23T01:56:03;4.45;;;2.65;;
81523;SDS011;70954;49.500;10.416;2024-03-23T01:58:29;3.67;;;2.10;;
81523;SDS011;70954;49.500;10.416;2024-03-23T02:00:55;2.97;;;2.40;;
81523;SDS011;70954;49.500;10.416;2024-03-23T02:03:23;2.42;;;1.95;;
81523;SDS011;70954;49.500;10.416;2024-03-23T02:05:49;3.33;;;2.50;;
81523;SDS011;70954;49.500;10.416;2024-03-23T02:08:15;3.20;;;2.35;;
81523;SDS011;70954;49.500;10.416;2024-03-23T02:10:41;3.45;;;2.35;;
81523;SDS011;70954;49.500;10.416;2024-03-23T02:13:07;3.20;;;2.45;;
81523;SDS011;70954;49.500;10.416;2024-03-23T02:15:32;4.15;;;2.63;;
81523;SDS011;70954;49.500;10.416;2024-03-23T02:17:58;3.55;;;2.53;;
81523;SDS011;70954;49.500;10.416;2024-03-23T02:20:23;4.80;;;3.25;;
81523;SDS011;70954;49.500;10.416;2024-03-23T02:22:51;3.90;;;2.38;;
81523;SDS011;70954;49.500;10.416;2024-03-23T02:27:43;2.38;;;1.98;;
81523;SDS011;70954;49.500;10.416;2024-03-23T02:30:09;3.08;;;2.22;;
81523;SDS011;70954;49.500;10.416;2024-03-23T02:32:34;3.40;;;2.00;;
81523;SDS011;70954;49.500;10.416;2024-03-23T02:35:00;2.67;;;2.28;;
81523;SDS011;70954;49.500;10.416;2024-03-23T02:37:25;3.03;;;2.45;;
81523;SDS011;70954;49.500;10.416;2024-03-23T02:39:50;2.67;;;2.03;;
81523;SDS011;70954;49.500;10.416;2024-03-23T02:42:16;3.63;;;2.25;;
81523;SDS011;70954;49.500;10.416;2024-03-23T02:44:41;3.40;;;2.35;;
81523;SDS011;70954;49.500;10.416;2024-03-23T02:47:07;2.90;;;2.33;;
81523;SDS011;70954;49.500;10.416;2024-03-23T02:49:32;2.42;;;2.15;;
81523;SDS011;70954;49.500;10.416;2024-03-23T02:51:58;3.05;;;2.05;;
81523;SDS011;70954;49.500;10.416;2024-03-23T02:54:23;2.58;;;2.25;;
81523;SDS011;70954;49.500;10.416;2024-03-23T02:56:48;2.65;;;2.20;;
81523;SDS011;70954;49.500;10.416;2024-03-23T02:59:14;3.22;;;1.75;;
81523;SDS011;70954;49.500;10.416;2024-03-23T03:01:39;3.05;;;2.22;;
81523;SDS011;70954;49.500;10.416;2024-03-23T03:04:05;2.88;;;1.92;;
81523;SDS011;70954;49.500;10.416;2024-03-23T03:06:30;2.25;;;1.77;;
81523;SDS011;70954;49.500;10.416;2024-03-23T03:08:56;3.20;;;2.08;;
81523;SDS011;70954;49.500;10.416;2024-03-23T03:11:21;2.63;;;2.25;;
81523;SDS011;70954;49.500;10.416;2024-03-23T03:13:47;3.20;;;2.22;;
81523;SDS011;70954;49.500;10.416;2024-03-23T03:16:12;2.78;;;1.88;;
81523;SDS011;70954;49.500;10.416;2024-03-23T03:18:38;2.58;;;2.10;;
81523;SDS011;70954;49.500;10.416;2024-03-23T03:21:04;2.92;;;2.13;;
81523;SDS011;70954;49.500;10.416;2024-03-23T03:23:29;2.20;;;1.92;;
81523;SDS011;70954;49.500;10.416;2024-03-23T03:25:55;2.20;;;1.73;;
81523;SDS011;70954;49.500;10.416;2024-03-23T03:28:20;2.40;;;1.83;;
81523;SDS011;70954;49.500;10.416;2024-03-23T03:30:45;3.35;;;2.15;;
81523;SDS011;70954;49.500;10.416;2024-03-23T03:33:11;3.03;;;2.28;;
81523;SDS011;70954;49.500;10.416;2024-03-23T03:35:36;2.55;;;1.83;;
81523;SDS011;70954;49.500;10.416;2024-03-23T03:38:02;1.88;;;1.42;;
81523;SDS011;70954;49.500;10.416;2024-03-23T03:40:27;2.50;;;1.83;;
81523;SDS011;70954;49.500;10.416;2024-03-23T03:42:53;3.00;;;2.08;;
81523;SDS011;70954;49.500;10.416;2024-03-23T03:45:18;2.45;;;1.92;;
81523;SDS011;70954;49.500;10.416;2024-03-23T03:47:44;2.50;;;1.67;;
81523;SDS011;70954;49.500;10.416;2024-03-23T03:50:10;2.13;;;1.80;;
81523;SDS011;70954;49.500;10.416;2024-03-23T03:52:35;2.20;;;1.80;;
81523;SDS011;70954;49.500;10.416;2024-03-23T03:55:01;2.80;;;2.17;;
81523;SDS011;70954;49.500;10.416;2024-03-23T03:57:27;3.03;;;2.15;;
81523;SDS011;70954;49.500;10.416;2024-03-23T03:59:52;3.00;;;2.55;;
81523;SDS011;70954;49.500;10.416;2024-03-23T04:02:18;2.10;;;1.88;;
81523;SDS011;70954;49.500;10.416;2024-03-23T04:04:43;2.83;;;2.05;;
81523;SDS011;70954;49.500;10.416;2024-03-23T04:07:09;2.65;;;2.00;;
81523;SDS011;70954;49.500;10.416;2024-03-23T04:09:34;2.20;;;1.85;;
81523;SDS011;70954;49.500;10.416;2024-03-23T04:11:59;2.38;;;1.90;;
81523;SDS011;70954;49.500;10.416;2024-03-23T04:14:25;4.65;;;2.00;;
81523;SDS011;70954;49.500;10.416;2024-03-23T04:16:50;3.15;;;2.30;;
81523;SDS011;70954;49.500;10.416;2024-03-23T04:19:16;2.70;;;1.80;;
81523;SDS011;70954;49.500;10.416;2024-03-23T04:21:41;2.17;;;1.75;;
81523;SDS011;70954;49.500;10.416;2024-03-23T04:24:07;1.63;;;1.40;;
81523;SDS011;70954;49.500;10.416;2024-03-23T04:26:41;2.65;;;1.70;;
81523;SDS011;70954;49.500;10.416;2024-03-23T04:29:08;3.00;;;1.63;;
81523;SDS011;70954;49.500;10.416;2024-03-23T04:31:33;3.47;;;1.70;;
81523;SDS011;70954;49.500;10.416;2024-03-23T04:33:58;2.08;;;1.67;;
81523;SDS011;70954;49.500;10.416;2024-03-23T04:36:24;1.98;;;1.45;;
81523;SDS011;70954;49.500;10.416;2024-03-23T04:38:49;2.30;;;1.67;;
81523;SDS011;70954;49.500;10.416;2024-03-23T04:41:15;2.08;;;1.50;;
81523;SDS011;70954;49.500;10.416;2024-03-23T04:43:40;1.92;;;1.58;;
81523;SDS011;70954;49.500;10.416;2024-03-23T04:46:06;2.00;;;1.63;;
81523;SDS011;70954;49.500;10.416;2024-03-23T04:48:31;3.22;;;1.90;;
81523;SDS011;70954;49.500;10.416;2024-03-23T04:50:57;2.55;;;2.03;;
81523;SDS011;70954;49.500;10.416;2024-03-23T04:53:23;2.80;;;2.30;;
81523;SDS011;70954;49.500;10.416;2024-03-23T04:55:49;2.75;;;1.90;;
81523;SDS011;70954;49.500;10.416;2024-03-23T04:58:14;4.97;;;2.00;;
81523;SDS011;70954;49.500;10.416;2024-03-23T05:00:40;2.75;;;2.00;;
81523;SDS011;70954;49.500;10.416;2024-03-23T05:03:05;3.17;;;1.75;;
81523;SDS011;70954;49.500;10.416;2024-03-23T05:05:31;3.72;;;2.08;;
81523;SDS011;70954;49.500;10.416;2024-03-23T05:07:56;1.92;;;1.73;;
81523;SDS011;70954;49.500;10.416;2024-03-23T05:10:22;3.15;;;1.90;;
81523;SDS011;70954;49.500;10.416;2024-03-23T05:12:47;3.28;;;1.90;;
81523;SDS011;70954;49.500;10.416;2024-03-23T05:15:13;2.00;;;1.45;;
81523;SDS011;70954;49.500;10.416;2024-03-23T05:17:38;3.72;;;2.30;;
81523;SDS011;70954;49.500;10.416;2024-03-23T05:20:04;2.75;;;2.10;;
81523;SDS011;70954;49.500;10.416;2024-03-23T05:22:30;2.67;;;1.98;;
81523;SDS011;70954;49.500;10.416;2024-03-23T05:24:55;4.53;;;2.20;;
81523;SDS011;70954;49.500;10.416;2024-03-23T05:27:21;2.20;;;1.90;;
81523;SDS011;70954;49.500;10.416;2024-03-23T05:29:46;3.72;;;1.98;;
81523;SDS011;70954;49.500;10.416;2024-03-23T05:32:12;2.88;;;2.13;;
81523;SDS011;70954;49.500;10.416;2024-03-23T05:34:37;3.20;;;2.05;;
81523;SDS011;70954;49.500;10.416;2024-03-23T05:37:03;3.20;;;2.17;;
81523;SDS011;70954;49.500;10.416;2024-03-23T05:39:28;3.08;;;2.33;;
81523;SDS011;70954;49.500;10.416;2024-03-23T05:41:53;4.78;;;2.40;;
81523;SDS011;70954;49.500;10.416;2024-03-23T05:44:19;4.57;;;3.17;;
81523;SDS011;70954;49.500;10.416;2024-03-23T05:46:45;4.15;;;2.85;;
81523;SDS011;70954;49.500;10.416;2024-03-23T05:49:10;5.25;;;3.40;;
81523;SDS011;70954;49.500;10.416;2024-03-23T05:51:36;4.95;;;2.88;;
81523;SDS011;70954;49.500;10.416;2024-03-23T05:54:01;5.43;;;3.03;;
81523;SDS011;70954;49.500;10.416;2024-03-23T05:56:27;5.03;;;3.13;;
81523;SDS011;70954;49.500;10.416;2024-03-23T05:58:52;5.82;;;3.72;;
81523;SDS011;70954;49.500;10.416;2024-03-23T06:01:18;4.68;;;3.08;;
81523;SDS011;70954;49.500;10.416;2024-03-23T06:03:43;4.60;;;3.28;;
81523;SDS011;70954;49.500;10.416;2024-03-23T06:06:08;5.63;;;3.67;;
81523;SDS011;70954;49.500;10.416;2024-03-23T06:08:34;5.45;;;3.85;;
81523;SDS011;70954;49.500;10.416;2024-03-23T06:10:59;5.80;;;3.85;;
81523;SDS011;70954;49.500;10.416;2024-03-23T06:13:25;6.15;;;4.00;;
81523;SDS011;70954;49.500;10.416;2024-03-23T06:15:50;5.93;;;3.72;;
81523;SDS011;70954;49.500;10.416;2024-03-23T06:18:16;7.53;;;4.18;;
81523;SDS011;70954;49.500;10.416;2024-03-23T06:20:41;8.52;;;4.72;;
81523;SDS011;70954;49.500;10.416;2024-03-23T06:23:07;8.55;;;5.20;;
81523;SDS011;70954;49.500;10.416;2024-03-23T06:25:32;5.30;;;3.50;;
81523;SDS011;70954;49.500;10.416;2024-03-23T06:27:57;7.35;;;3.83;;
81523;SDS011;70954;49.500;10.416;2024-03-23T06:30:23;6.43;;;4.53;;
81523;SDS011;70954;49.500;10.416;2024-03-23T06:32:49;7.55;;;4.25;;
81523;SDS011;70954;49.500;10.416;2024-03-23T06:35:14;7.68;;;4.32;;
81523;SDS011;70954;49.500;10.416;2024-03-23T06:37:39;5.47;;;3.45;;
81523;SDS011;70954;49.500;10.416;2024-03-23T06:40:05;6.30;;;3.60;;
81523;SDS011;70954;49.500;10.416;2024-03-23T06:42:31;5.72;;;3.38;;
81523;SDS011;70954;49.500;10.416;2024-03-23T06:44:57;5.43;;;3.33;;
81523;SDS011;70954;49.500;10.416;2024-03-23T06:47:22;6.70;;;3.97;;
81523;SDS011;70954;49.500;10.416;2024-03-23T06:49:48;7.78;;;3.78;;
81523;SDS011;70954;49.500;10.416;2024-03-23T06:52:13;5.55;;;3.00;;
81523;SDS011;70954;49.500;10.416;2024-03-23T06:54:38;5.07;;;3.03;;
81523;SDS011;70954;49.500;10.416;2024-03-23T06:57:04;4.38;;;2.78;;
81523;SDS011;70954;49.500;10.416;2024-03-23T06:59:29;7.68;;;4.13;;
81523;SDS011;70954;49.500;10.416;2024-03-23T07:01:55;5.07;;;2.80;;
81523;SDS011;70954;49.500;10.416;2024-03-23T07:04:20;5.07;;;3.10;;
81523;SDS011;70954;49.500;10.416;2024-03-23T07:06:46;4.90;;;3.08;;
81523;SDS011;70954;49.500;10.416;2024-03-23T07:09:11;5.07;;;3.20;;
81523;SDS011;70954;49.500;10.416;2024-03-23T07:11:37;4.25;;;2.78;;
81523;SDS011;70954;49.500;10.416;2024-03-23T07:14:03;3.97;;;2.70;;
81523;SDS011;70954;49.500;10.416;2024-03-23T07:16:28;5.55;;;3.35;;
81523;SDS011;70954;49.500;10.416;2024-03-23T07:18:54;4.13;;;2.78;;
81523;SDS011;70954;49.500;10.416;2024-03-23T07:21:20;5.70;;;2.97;;
81523;SDS011;70954;49.500;10.416;2024-03-23T07:23:45;5.50;;;3.00;;
81523;SDS011;70954;49.500;10.416;2024-03-23T07:26:11;5.22;;;2.85;;
81523;SDS011;70954;49.500;10.416;2024-03-23T07:28:36;4.55;;;2.63;;
81523;SDS011;70954;49.500;10.416;2024-03-23T07:33:41;6.28;;;3.65;;
81523;SDS011;70954;49.500;10.416;2024-03-23T07:36:07;6.38;;;3.75;;
81523;SDS011;70954;49.500;10.416;2024-03-23T07:38:33;5.25;;;3.30;;
81523;SDS011;70954;49.500;10.416;2024-03-23T07:41:02;4.38;;;2.80;;
81523;SDS011;70954;49.500;10.416;2024-03-23T07:43:35;4.03;;;2.67;;
81523;SDS011;70954;49.500;10.416;2024-03-23T07:46:01;4.32;;;2.55;;
81523;SDS011;70954;49.500;10.416;2024-03-23T07:48:27;3.13;;;1.90;;
81523;SDS011;70954;49.500;10.416;2024-03-23T07:51:03;1.92;;;1.48;;
81523;SDS011;70954;49.500;10.416;2024-03-23T07:53:30;2.28;;;1.42;;
81523;SDS011;70954;49.500;10.416;2024-03-23T07:55:59;2.05;;;1.60;;
81523;SDS011;70954;49.500;10.416;2024-03-23T07:58:25;2.53;;;1.80;;
81523;SDS011;70954;49.500;10.416;2024-03-23T08:00:54;2.25;;;1.55;;
81523;SDS011;70954;49.500;10.416;2024-03-23T08:03:20;2.22;;;1.92;;
81523;SDS011;70954;49.500;10.416;2024-03-23T08:05:46;1.48;;;1.30;;
81523;SDS011;70954;49.500;10.416;2024-03-23T08:08:12;2.05;;;1.70;;
81523;SDS011;70954;49.500;10.416;2024-03-23T08:10:50;1.67;;;1.20;;
81523;SDS011;70954;49.500;10.416;2024-03-23T08:13:16;2.15;;;1.42;;
81523;SDS011;70954;49.500;10.416;2024-03-23T08:15:42;1.60;;;1.40;;
81523;SDS011;70954;49.500;10.416;2024-03-23T08:18:08;1.40;;;1.30;;
81523;SDS011;70954;49.500;10.416;2024-03-23T08:20:34;1.38;;;1.27;;
81523;SDS011;70954;49.500;10.416;2024-03-23T08:23:00;1.98;;;1.33;;
81523;SDS011;70954;49.500;10.416;2024-03-23T08:25:25;1.40;;;1.10;;
81523;SDS011;70954;49.500;10.416;2024-03-23T08:27:51;1.30;;;1.20;;
81523;SDS011;70954;49.500;10.416;2024-03-23T08:30:16;1.27;;;1.17;;
81523;SDS011;70954;49.500;10.416;2024-03-23T08:32:42;1.48;;;1.15;;
81523;SDS011;70954;49.500;10.416;2024-03-23T08:35:07;0.80;;;0.80;;
81523;SDS011;70954;49.500;10.416;2024-03-23T08:37:33;1.08;;;0.82;;
81523;SDS011;70954;49.500;10.416;2024-03-23T08:39:58;1.08;;;0.85;;
81523;SDS011;70954;49.500;10.416;2024-03-23T08:42:24;1.35;;;1.25;;
81523;SDS011;70954;49.500;10.416;2024-03-23T08:44:49;1.70;;;1.60;;
81523;SDS011;70954;49.500;10.416;2024-03-23T08:47:15;1.77;;;1.10;;
81523;SDS011;70954;49.500;10.416;2024-03-23T08:49:41;1.45;;;0.80;;
81523;SDS011;70954;49.500;10.416;2024-03-23T08:52:06;0.80;;;0.80;;
81523;SDS011;70954;49.500;10.416;2024-03-23T08:54:31;1.20;;;1.10;;
81523;SDS011;70954;49.500;10.416;2024-03-23T08:56:57;0.90;;;0.90;;
81523;SDS011;70954;49.500;10.416;2024-03-23T08:59:22;1.00;;;0.90;;
81523;SDS011;70954;49.500;10.416;2024-03-23T09:01:48;1.80;;;0.70;;
81523;SDS011;70954;49.500;10.416;2024-03-23T09:04:13;0.50;;;0.50;;
81523;SDS011;70954;49.500;10.416;2024-03-23T09:06:39;0.50;;;0.50;;
81523;SDS011;70954;49.500;10.416;2024-03-23T09:09:04;0.50;;;0.50;;
81523;SDS011;70954;49.500;10.416;2024-03-23T09:11:29;0.70;;;0.70;;
81523;SDS011;70954;49.500;10.416;2024-03-23T09:13:55;0.50;;;0.50;;
81523;SDS011;70954;49.500;10.416;2024-03-23T09:16:20;0.70;;;0.50;;
81523;SDS011;70954;49.500;10.416;2024-03-23T09:18:46;0.40;;;0.40;;
81523;SDS011;70954;49.500;10.416;2024-03-23T09:21:11;0.75;;;0.50;;
81523;SDS011;70954;49.500;10.416;2024-03-23T09:23:37;0.30;;;0.30;;
81523;SDS011;70954;49.500;10.416;2024-03-23T09:26:03;0.30;;;0.30;;
81523;SDS011;70954;49.500;10.416;2024-03-23T09:28:29;0.40;;;0.40;;
81523;SDS011;70954;49.500;10.416;2024-03-23T09:30:54;0.50;;;0.50;;
81523;SDS011;70954;49.500;10.416;2024-03-23T09:33:19;0.50;;;0.50;;
81523;SDS011;70954;49.500;10.416;2024-03-23T09:35:45;0.40;;;0.40;;
81523;SDS011;70954;49.500;10.416;2024-03-23T09:38:10;0.50;;;0.50;;
81523;SDS011;70954;49.500;10.416;2024-03-23T09:40:42;0.60;;;0.60;;
81523;SDS011;70954;49.500;10.416;2024-03-23T09:43:08;1.25;;;0.82;;
81523;SDS011;70954;49.500;10.416;2024-03-23T09:45:35;1.80;;;0.90;;
81523;SDS011;70954;49.500;10.416;2024-03-23T09:48:05;0.82;;;0.70;;
81523;SDS011;70954;49.500;10.416;2024-03-23T09:50:31;0.68;;;0.63;;
81523;SDS011;70954;49.500;10.416;2024-03-23T09:52:57;1.80;;;0.70;;
81523;SDS011;70954;49.500;10.416;2024-03-23T09:55:22;0.90;;;0.75;;
81523;SDS011;70954;49.500;10.416;2024-03-23T09:57:48;0.60;;;0.60;;
81523;SDS011;70954;49.500;10.416;2024-03-23T10:00:13;2.15;;;0.70;;
81523;SDS011;70954;49.500;10.416;2024-03-23T10:02:39;1.73;;;0.93;;
81523;SDS011;70954;49.500;10.416;2024-03-23T10:05:05;1.83;;;0.90;;
81523;SDS011;70954;49.500;10.416;2024-03-23T10:07:45;0.80;;;0.70;;
81523;SDS011;70954;49.500;10.416;2024-03-23T10:10:11;1.38;;;0.82;;
81523;SDS011;70954;49.500;10.416;2024-03-23T10:12:40;0.90;;;0.80;;
81523;SDS011;70954;49.500;10.416;2024-03-23T10:15:15;1.20;;;0.80;;
81523;SDS011;70954;49.500;10.416;2024-03-23T10:17:43;2.30;;;1.23;;
81523;SDS011;70954;49.500;10.416;2024-03-23T10:20:09;2.25;;;1.10;;
81523;SDS011;70954;49.500;10.416;2024-03-23T10:25:26;3.08;;;1.70;;
81523;SDS011;70954;49.500;10.416;2024-03-23T10:28:09;1.52;;;1.20;;
81523;SDS011;70954;49.500;10.416;2024-03-23T10:30:35;2.28;;;1.17;;
81523;SDS011;70954;49.500;10.416;2024-03-23T10:33:10;2.55;;;1.13;;
81523;SDS011;70954;49.500;10.416;2024-03-23T10:35:36;4.15;;;1.50;;
81523;SDS011;70954;49.500;10.416;2024-03-23T10:38:06;2.45;;;1.25;;
81523;SDS011;70954;49.500;10.416;2024-03-23T10:40:35;1.85;;;1.20;;
81523;SDS011;70954;49.500;10.416;2024-03-23T10:43:05;1.75;;;1.40;;
81523;SDS011;70954;49.500;10.416;2024-03-23T10:45:33;2.33;;;1.70;;
81523;SDS011;70954;49.500;10.416;2024-03-23T10:47:58;3.47;;;1.40;;
81523;SDS011;70954;49.500;10.416;2024-03-23T10:50:24;2.00;;;1.10;;
81523;SDS011;70954;49.500;10.416;2024-03-23T10:52:49;3.80;;;1.77;;
81523;SDS011;70954;49.500;10.416;2024-03-23T10:55:18;1.63;;;1.23;;
81523;SDS011;70954;49.500;10.416;2024-03-23T10:57:48;2.95;;;1.70;;
81523;SDS011;70954;49.500;10.416;2024-03-23T11:00:20;1.80;;;1.40;;
81523;SDS011;70954;49.500;10.416;2024-03-23T11:02:47;2.55;;;1.52;;
81523;SDS011;70954;49.500;10.416;2024-03-23T11:05:29;2.97;;;1.70;;
81523;SDS011;70954;49.500;10.416;2024-03-23T11:07:54;2.83;;;1.80;;
81523;SDS011;70954;49.500;10.416;2024-03-23T11:10:38;2.35;;;1.50;;
81523;SDS011;70954;49.500;10.416;2024-03-23T11:13:22;2.40;;;1.50;;
81523;SDS011;70954;49.500;10.416;2024-03-23T11:15:48;2.70;;;1.40;;
81523;SDS011;70954;49.500;10.416;2024-03-23T11:18:20;3.05;;;1.40;;
81523;SDS011;70954;49.500;10.416;2024-03-23T11:20:46;2.22;;;1.10;;
81523;SDS011;70954;49.500;10.416;2024-03-23T11:23:26;3.13;;;1.50;;
81523;SDS011;70954;49.500;10.416;2024-03-23T11:25:52;3.13;;;1.70;;
81523;SDS011;70954;49.500;10.416;2024-03-23T11:28:18;3.90;;;1.50;;
81523;SDS011;70954;49.500;10.416;2024-03-23T11:30:43;2.08;;;1.10;;
81523;SDS011;70954;49.500;10.416;2024-03-23T11:33:09;2.35;;;1.70;;
81523;SDS011;70954;49.500;10.416;2024-03-23T11:35:36;3.28;;;1.55;;
81523;SDS011;70954;49.500;10.416;2024-03-23T11:40:39;3.35;;;1.50;;
81523;SDS011;70954;49.500;10.416;2024-03-23T11:43:09;3.50;;;1.58;;
81523;SDS011;70954;49.500;10.416;2024-03-23T11:45:41;2.63;;;1.50;;
81523;SDS011;70954;49.500;10.416;2024-03-23T11:48:14;2.92;;;1.40;;
81523;SDS011;70954;49.500;10.416;2024-03-23T11:50:41;2.40;;;1.48;;
81523;SDS011;70954;49.500;10.416;2024-03-23T11:55:42;2.17;;;1.13;;
81523;SDS011;70954;49.500;10.416;2024-03-23T11:58:10;2.22;;;1.50;;
81523;SDS011;70954;49.500;10.416;2024-03-23T12:00:36;4.18;;;1.73;;
81523;SDS011;70954;49.500;10.416;2024-03-23T12:03:02;2.95;;;1.33;;
81523;SDS011;70954;49.500;10.416;2024-03-23T12:05:28;2.13;;;1.35;;
81523;SDS011;70954;49.500;10.416;2024-03-23T12:07:54;1.80;;;1.13;;
81523;SDS011;70954;49.500;10.416;2024-03-23T12:10:19;3.40;;;1.45;;
81523;SDS011;70954;49.500;10.416;2024-03-23T12:12:45;4.30;;;1.77;;
81523;SDS011;70954;49.500;10.416;2024-03-23T12:15:10;2.50;;;1.42;;
81523;SDS011;70954;49.500;10.416;2024-03-23T12:17:35;2.60;;;1.50;;
81523;SDS011;70954;49.500;10.416;2024-03-23T12:20:01;2.67;;;1.65;;
81523;SDS011;70954;49.500;10.416;2024-03-23T12:22:27;1.52;;;1.10;;
81523;SDS011;70954;49.500;10.416;2024-03-23T12:24:52;2.60;;;1.80;;
81523;SDS011;70954;49.500;10.416;2024-03-23T12:27:18;2.08;;;1.50;;
81523;SDS011;70954;49.500;10.416;2024-03-23T12:29:44;3.65;;;1.40;;
81523;SDS011;70954;49.500;10.416;2024-03-23T12:32:09;3.67;;;1.25;;
81523;SDS011;70954;49.500;10.416;2024-03-23T12:34:34;3.00;;;1.42;;
81523;SDS011;70954;49.500;10.416;2024-03-23T12:37:00;2.10;;;1.30;;
81523;SDS011;70954;49.500;10.416;2024-03-23T12:39:25;2.50;;;1.20;;
81523;SDS011;70954;49.500;10.416;2024-03-23T12:41:52;3.25;;;1.20;;
81523;SDS011;70954;49.500;10.416;2024-03-23T12:44:17;7.07;;;1.90;;
81523;SDS011;70954;49.500;10.416;2024-03-23T12:46:43;3.40;;;1.33;;
81523;SDS011;70954;49.500;10.416;2024-03-23T12:49:09;2.22;;;1.52;;
81523;SDS011;70954;49.500;10.416;2024-03-23T12:51:34;2.03;;;1.35;;
81523;SDS011;70954;49.500;10.416;2024-03-23T12:54:00;3.60;;;1.30;;
81523;SDS011;70954;49.500;10.416;2024-03-23T12:56:25;3.80;;;1.45;;
81523;SDS011;70954;49.500;10.416;2024-03-23T12:58:51;2.60;;;1.20;;
81523;SDS011;70954;49.500;10.416;2024-03-23T13:01:16;2.40;;;1.17;;
81523;SDS011;70954;49.500;10.416;2024-03-23T13:03:42;2.33;;;1.30;;
81523;SDS011;70954;49.500;10.416;2024-03-23T13:06:08;2.60;;;1.20;;
81523;SDS011;70954;49.500;10.416;2024-03-23T13:08:33;2.92;;;1.40;;
81523;SDS011;70954;49.500;10.416;2024-03-23T13:10:59;2.03;;;1.20;;
81523;SDS011;70954;49.500;10.416;2024-03-23T13:13:24;2.47;;;1.30;;
81523;SDS011;70954;49.500;10.416;2024-03-23T13:15:50;3.17;;;1.25;;
81523;SDS011;70954;49.500;10.416;2024-03-23T13:18:16;2.28;;;1.23;;
81523;SDS011;70954;49.500;10.416;2024-03-23T13:20:41;2.28;;;1.30;;
81523;SDS011;70954;49.500;10.416;2024-03-23T13:23:07;2.20;;;1.20;;
81523;SDS011;70954;49.500;10.416;2024-03-23T13:25:32;3.17;;;1.27;;
81523;SDS011;70954;49.500;10.416;2024-03-23T13:27:57;2.58;;;1.23;;
81523;SDS011;70954;49.500;10.416;2024-03-23T13:30:23;2.13;;;1.10;;
81523;SDS011;70954;49.500;10.416;2024-03-23T13:32:48;3.58;;;1.33;;
81523;SDS011;70954;49.500;10.416;2024-03-23T13:35:14;3.95;;;1.80;;
81523;SDS011;70954;49.500;10.416;2024-03-23T13:37:39;3.88;;;1.63;;
81523;SDS011;70954;49.500;10.416;2024-03-23T13:40:06;2.55;;;1.20;;
81523;SDS011;70954;49.500;10.416;2024-03-23T13:42:32;2.55;;;1.40;;
81523;SDS011;70954;49.500;10.416;2024-03-23T13:44:57;2.47;;;1.20;;
81523;SDS011;70954;49.500;10.416;2024-03-23T13:47:23;2.80;;;1.00;;
81523;SDS011;70954;49.500;10.416;2024-03-23T13:49:48;3.65;;;1.13;;
81523;SDS011;70954;49.500;10.416;2024-03-23T13:52:14;2.40;;;1.00;;
81523;SDS011;70954;49.500;10.416;2024-03-23T13:54:39;3.05;;;1.10;;
81523;SDS011;70954;49.500;10.416;2024-03-23T13:57:04;1.95;;;1.17;;
81523;SDS011;70954;49.500;10.416;2024-03-23T13:59:30;2.05;;;1.10;;
81523;SDS011;70954;49.500;10.416;2024-03-23T14:01:55;2.97;;;1.35;;
81523;SDS011;70954;49.500;10.416;2024-03-23T14:04:21;2.22;;;1.20;;
81523;SDS011;70954;49.500;10.416;2024-03-23T14:06:46;3.05;;;1.38;;
81523;SDS011;70954;49.500;10.416;2024-03-23T14:09:14;1.77;;;1.15;;
81523;SDS011;70954;49.500;10.416;2024-03-23T14:11:40;3.03;;;1.20;;
81523;SDS011;70954;49.500;10.416;2024-03-23T14:14:06;3.25;;;1.20;;
81523;SDS011;70954;49.500;10.416;2024-03-23T14:16:32;2.63;;;1.10;;
81523;SDS011;70954;49.500;10.416;2024-03-23T14:18:57;3.60;;;1.40;;
81523;SDS011;70954;49.500;10.416;2024-03-23T14:21:23;1.80;;;1.35;;
81523;SDS011;70954;49.500;10.416;2024-03-23T14:23:49;4.03;;;1.55;;
81523;SDS011;70954;49.500;10.416;2024-03-23T14:26:14;2.90;;;1.23;;
81523;SDS011;70954;49.500;10.416;2024-03-23T14:28:40;1.88;;;1.13;;
81523;SDS011;70954;49.500;10.416;2024-03-23T14:31:05;1.30;;;0.90;;
81523;SDS011;70954;49.500;10.416;2024-03-23T14:33:30;3.30;;;1.30;;
81523;SDS011;70954;49.500;10.416;2024-03-23T14:35:56;1.55;;;1.30;;
81523;SDS011;70954;49.500;10.416;2024-03-23T14:38:22;2.38;;;1.60;;
81523;SDS011;70954;49.500;10.416;2024-03-23T14:40:48;2.28;;;1.30;;
81523;SDS011;70954;49.500;10.416;2024-03-23T14:43:13;1.60;;;0.95;;
81523;SDS011;70954;49.500;10.416;2024-03-23T14:45:45;2.05;;;1.13;;
81523;SDS011;70954;49.500;10.416;2024-03-23T14:48:32;3.08;;;1.08;;
81523;SDS011;70954;49.500;10.416;2024-03-23T14:50:58;1.33;;;0.95;;
81523;SDS011;70954;49.500;10.416;2024-03-23T14:53:24;2.83;;;1.30;;
81523;SDS011;70954;49.500;10.416;2024-03-23T14:55:50;1.30;;;1.00;;
81523;SDS011;70954;49.500;10.416;2024-03-23T14:58:15;4.50;;;1.92;;
81523;SDS011;70954;49.500;10.416;2024-03-23T15:00:41;3.58;;;1.40;;
81523;SDS011;70954;49.500;10.416;2024-03-23T15:03:06;2.38;;;1.02;;
81523;SDS011;70954;49.500;10.416;2024-03-23T15:05:32;4.18;;;1.58;;
81523;SDS011;70954;49.500;10.416;2024-03-23T15:07:57;3.25;;;1.33;;
81523;SDS011;70954;49.500;10.416;2024-03-23T15:10:23;1.27;;;0.90;;
81523;SDS011;70954;49.500;10.416;2024-03-23T15:12:48;1.10;;;1.00;;
81523;SDS011;70954;49.500;10.416;2024-03-23T15:15:13;2.15;;;1.20;;
81523;SDS011;70954;49.500;10.416;2024-03-23T15:17:39;1.65;;;1.13;;
81523;SDS011;70954;49.500;10.416;2024-03-23T15:20:04;2.38;;;0.93;;
81523;SDS011;70954;49.500;10.416;2024-03-23T15:22:30;1.05;;;0.88;;
81523;SDS011;70954;49.500;10.416;2024-03-23T15:24:56;3.08;;;1.77;;
81523;SDS011;70954;49.500;10.416;2024-03-23T15:27:21;2.65;;;1.77;;
81523;SDS011;70954;49.500;10.416;2024-03-23T15:29:47;2.80;;;1.10;;
81523;SDS011;70954;49.500;10.416;2024-03-23T15:32:12;2.15;;;1.20;;